sensor_id;sensor_type;location;lat;lon;timestamp;temperature;humidity
13074;DHT22;6603;47.066;15.396;2023-04-09T00:01:14;3.20;99.90
13074;DHT22;6603;47.066;15.396;2023-04-09T00:03:40;3.10;99.90
13074;DHT22;6603;47.066;15.396;2023-04-09T00:06:06;3.10;99.90
13074;DHT22;6603;47.066;15.396;2023-04-09T00:08:32;3.10;99.90
13074;DHT22;6603;47.066;15.396;2023-04-09T00:10:58;3.10;99.90
13074;DHT22;6603;47.066;15.396;2023-04-09T00:13:25;3.10;99.90
13074;DHT22;6603;47.066;15.396;2023-04-09T00:15:50;3.00;99.90
13074;DHT22;6603;47.066;15.396;2023-04-09T00:18:16;2.90;99.90
13074;DHT22;6603;47.066;15.396;2023-04-09T00:20:43;3.00;99.90
13074;DHT22;6603;47.066;15.396;2023-04-09T00:23:09;2.90;99.90
13074;DHT22;6603;47.066;15.396;2023-04-09T00:25:35;2.90;99.90
13074;DHT22;6603;47.066;15.396;2023-04-09T00:28:02;2.80;99.90
13074;DHT22;6603;47.066;15.396;2023-04-09T00:30:29;2.80;99.90
13074;DHT22;6603;47.066;15.396;2023-04-09T00:32:55;2.80;99.90
13074;DHT22;6603;47.066;15.396;2023-04-09T00:35:21;2.80;99.90
13074;DHT22;6603;47.066;15.396;2023-04-09T00:37:47;2.80;99.90
13074;DHT22;6603;47.066;15.396;2023-04-09T00:40:13;2.90;99.90
13074;DHT22;6603;47.066;15.396;2023-04-09T00:42:39;3.00;99.90
13074;DHT22;6603;47.066;15.396;2023-04-09T00:45:07;2.90;99.90
13074;DHT22;6603;47.066;15.396;2023-04-09T00:47:34;2.90;99.90
13074;DHT22;6603;47.066;15.396;2023-04-09T00:50:02;2.90;99.90
13074;DHT22;6603;47.066;15.396;2023-04-09T00:52:28;3.00;99.90
13074;DHT22;6603;47.066;15.396;2023-04-09T00:55:01;3.00;99.90
13074;DHT22;6603;47.066;15.396;2023-04-09T00:57:29;3.00;99.90
13074;DHT22;6603;47.066;15.396;2023-04-09T00:59:55;3.10;99.90
13074;DHT22;6603;47.066;15.396;2023-04-09T01:02:21;3.20;99.90
13074;DHT22;6603;47.066;15.396;2023-04-09T01:04:48;3.10;99.90
13074;DHT22;6603;47.066;15.396;2023-04-09T01:15:37;3.30;99.90
13074;DHT22;6603;47.066;15.396;2023-04-09T01:20:38;3.40;99.90
13074;DHT22;6603;47.066;15.396;2023-04-09T01:28:48;3.60;99.90
13074;DHT22;6603;47.066;15.396;2023-04-09T01:31:19;3.70;99.90
13074;DHT22;6603;47.066;15.396;2023-04-09T01:33:46;3.60;99.90
13074;DHT22;6603;47.066;15.396;2023-04-09T01:36:13;3.50;99.90
13074;DHT22;6603;47.066;15.396;2023-04-09T01:38:41;3.60;99.90
13074;DHT22;6603;47.066;15.396;2023-04-09T01:41:11;3.60;99.90
13074;DHT22;6603;47.066;15.396;2023-04-09T01:43:38;3.60;99.90
13074;DHT22;6603;47.066;15.396;2023-04-09T01:46:04;3.60;99.90
13074;DHT22;6603;47.066;15.396;2023-04-09T01:48:30;3.50;99.90
13074;DHT22;6603;47.066;15.396;2023-04-09T01:54:15;3.50;99.90
13074;DHT22;6603;47.066;15.396;2023-04-09T01:56:45;3.50;99.90
13074;DHT22;6603;47.066;15.396;2023-04-09T01:59:12;3.70;99.90
13074;DHT22;6603;47.066;15.396;2023-04-09T02:01:44;3.60;99.90
13074;DHT22;6603;47.066;15.396;2023-04-09T02:04:45;3.50;99.90
13074;DHT22;6603;47.066;15.396;2023-04-09T02:07:13;3.40;99.90
13074;DHT22;6603;47.066;15.396;2023-04-09T02:09:43;3.40;99.90
13074;DHT22;6603;47.066;15.396;2023-04-09T02:12:13;3.60;99.90
13074;DHT22;6603;47.066;15.396;2023-04-09T02:14:41;3.70;99.90
13074;DHT22;6603;47.066;15.396;2023-04-09T02:17:12;3.70;99.90
13074;DHT22;6603;47.066;15.396;2023-04-09T02:19:43;3.70;99.90
13074;DHT22;6603;47.066;15.396;2023-04-09T02:22:12;3.60;99.90
13074;DHT22;6603;47.066;15.396;2023-04-09T02:24:39;3.60;99.90
13074;DHT22;6603;47.066;15.396;2023-04-09T02:27:05;3.60;99.90
13074;DHT22;6603;47.066;15.396;2023-04-09T02:29:32;3.60;99.90
13074;DHT22;6603;47.066;15.396;2023-04-09T02:31:58;3.60;99.90
13074;DHT22;6603;47.066;15.396;2023-04-09T02:34:24;3.60;99.90
13074;DHT22;6603;47.066;15.396;2023-04-09T02:36:50;3.50;99.90
13074;DHT22;6603;47.066;15.396;2023-04-09T02:39:16;3.50;99.90
13074;DHT22;6603;47.066;15.396;2023-04-09T02:41:42;3.50;99.90
13074;DHT22;6603;47.066;15.396;2023-04-09T02:44:08;3.70;99.90
13074;DHT22;6603;47.066;15.396;2023-04-09T02:46:34;3.70;99.90
13074;DHT22;6603;47.066;15.396;2023-04-09T02:49:00;3.60;99.90
13074;DHT22;6603;47.066;15.396;2023-04-09T02:51:27;3.60;99.90
13074;DHT22;6603;47.066;15.396;2023-04-09T02:53:53;3.60;99.90
13074;DHT22;6603;47.066;15.396;2023-04-09T02:56:19;3.50;99.90
13074;DHT22;6603;47.066;15.396;2023-04-09T02:58:45;3.50;99.90
13074;DHT22;6603;47.066;15.396;2023-04-09T03:01:14;3.60;99.90
13074;DHT22;6603;47.066;15.396;2023-04-09T03:03:40;3.60;99.90
13074;DHT22;6603;47.066;15.396;2023-04-09T03:06:07;3.70;99.90
13074;DHT22;6603;47.066;15.396;2023-04-09T03:08:33;3.70;99.90
13074;DHT22;6603;47.066;15.396;2023-04-09T03:10:59;3.50;99.90
13074;DHT22;6603;47.066;15.396;2023-04-09T03:13:27;3.40;99.90
13074;DHT22;6603;47.066;15.396;2023-04-09T03:15:53;3.50;99.90
13074;DHT22;6603;47.066;15.396;2023-04-09T03:18:19;3.50;99.90
13074;DHT22;6603;47.066;15.396;2023-04-09T03:20:46;3.40;99.90
13074;DHT22;6603;47.066;15.396;2023-04-09T03:23:12;3.30;99.90
13074;DHT22;6603;47.066;15.396;2023-04-09T03:25:37;3.40;99.90
13074;DHT22;6603;47.066;15.396;2023-04-09T03:28:03;3.50;99.90
13074;DHT22;6603;47.066;15.396;2023-04-09T03:30:29;3.40;99.90
13074;DHT22;6603;47.066;15.396;2023-04-09T03:32:55;3.40;99.90
13074;DHT22;6603;47.066;15.396;2023-04-09T03:35:21;3.60;99.90
13074;DHT22;6603;47.066;15.396;2023-04-09T03:37:48;3.70;99.90
13074;DHT22;6603;47.066;15.396;2023-04-09T03:40:13;3.80;99.90
13074;DHT22;6603;47.066;15.396;2023-04-09T03:42:42;3.80;99.90
13074;DHT22;6603;47.066;15.396;2023-04-09T03:45:08;3.60;99.90
13074;DHT22;6603;47.066;15.396;2023-04-09T03:47:34;3.40;99.90
13074;DHT22;6603;47.066;15.396;2023-04-09T03:50:01;3.30;99.90
13074;DHT22;6603;47.066;15.396;2023-04-09T03:52:27;3.30;99.90
13074;DHT22;6603;47.066;15.396;2023-04-09T03:54:53;3.30;99.90
13074;DHT22;6603;47.066;15.396;2023-04-09T03:57:19;3.20;99.90
13074;DHT22;6603;47.066;15.396;2023-04-09T03:59:45;3.10;99.90
13074;DHT22;6603;47.066;15.396;2023-04-09T04:02:11;3.20;99.90
13074;DHT22;6603;47.066;15.396;2023-04-09T04:04:37;3.20;99.90
13074;DHT22;6603;47.066;15.396;2023-04-09T04:07:03;3.30;99.90
13074;DHT22;6603;47.066;15.396;2023-04-09T04:09:29;3.40;99.90
13074;DHT22;6603;47.066;15.396;2023-04-09T04:11:55;3.50;99.90
13074;DHT22;6603;47.066;15.396;2023-04-09T04:14:23;3.50;99.90
13074;DHT22;6603;47.066;15.396;2023-04-09T04:16:49;3.50;99.90
13074;DHT22;6603;47.066;15.396;2023-04-09T04:19:15;3.20;99.90
13074;DHT22;6603;47.066;15.396;2023-04-09T04:21:41;3.20;99.90
13074;DHT22;6603;47.066;15.396;2023-04-09T04:24:07;3.10;99.90
13074;DHT22;6603;47.066;15.396;2023-04-09T04:26:33;3.20;99.90
13074;DHT22;6603;47.066;15.396;2023-04-09T04:28:59;3.40;99.90
13074;DHT22;6603;47.066;15.396;2023-04-09T04:31:25;3.60;99.90
13074;DHT22;6603;47.066;15.396;2023-04-09T04:33:51;3.60;99.90
13074;DHT22;6603;47.066;15.396;2023-04-09T04:36:17;3.50;99.90
13074;DHT22;6603;47.066;15.396;2023-04-09T04:38:43;3.30;99.90
13074;DHT22;6603;47.066;15.396;2023-04-09T04:41:10;3.30;99.90
13074;DHT22;6603;47.066;15.396;2023-04-09T04:43:36;3.20;99.90
13074;DHT22;6603;47.066;15.396;2023-04-09T04:46:02;3.20;99.90
13074;DHT22;6603;47.066;15.396;2023-04-09T04:48:28;3.00;99.90
13074;DHT22;6603;47.066;15.396;2023-04-09T04:51:00;3.10;99.90
13074;DHT22;6603;47.066;15.396;2023-04-09T04:53:27;3.30;99.90
13074;DHT22;6603;47.066;15.396;2023-04-09T04:55:53;3.30;99.90
13074;DHT22;6603;47.066;15.396;2023-04-09T04:58:20;3.30;99.90
13074;DHT22;6603;47.066;15.396;2023-04-09T05:00:46;3.50;99.90
13074;DHT22;6603;47.066;15.396;2023-04-09T05:03:12;3.50;99.90
13074;DHT22;6603;47.066;15.396;2023-04-09T05:05:38;3.70;99.90
13074;DHT22;6603;47.066;15.396;2023-04-09T05:08:04;3.70;99.90
13074;DHT22;6603;47.066;15.396;2023-04-09T05:10:30;3.50;99.90
13074;DHT22;6603;47.066;15.396;2023-04-09T05:12:56;3.70;99.90
13074;DHT22;6603;47.066;15.396;2023-04-09T05:15:22;3.70;99.90
13074;DHT22;6603;47.066;15.396;2023-04-09T05:17:48;3.80;99.90
13074;DHT22;6603;47.066;15.396;2023-04-09T05:20:14;3.80;99.90
13074;DHT22;6603;47.066;15.396;2023-04-09T05:22:40;3.80;99.90
13074;DHT22;6603;47.066;15.396;2023-04-09T05:25:07;3.80;99.90
13074;DHT22;6603;47.066;15.396;2023-04-09T05:27:33;3.90;99.90
13074;DHT22;6603;47.066;15.396;2023-04-09T05:29:59;3.90;99.90
13074;DHT22;6603;47.066;15.396;2023-04-09T05:32:25;3.90;99.90
13074;DHT22;6603;47.066;15.396;2023-04-09T05:34:51;3.80;99.90
13074;DHT22;6603;47.066;15.396;2023-04-09T05:37:17;3.90;99.90
13074;DHT22;6603;47.066;15.396;2023-04-09T05:39:43;4.00;99.90
13074;DHT22;6603;47.066;15.396;2023-04-09T05:42:09;4.10;99.90
13074;DHT22;6603;47.066;15.396;2023-04-09T05:44:35;4.00;99.90
13074;DHT22;6603;47.066;15.396;2023-04-09T05:47:01;4.10;99.90
13074;DHT22;6603;47.066;15.396;2023-04-09T05:49:27;4.20;99.90
13074;DHT22;6603;47.066;15.396;2023-04-09T05:51:53;4.30;99.90
13074;DHT22;6603;47.066;15.396;2023-04-09T05:54:19;4.20;99.90
13074;DHT22;6603;47.066;15.396;2023-04-09T05:56:45;4.30;99.90
13074;DHT22;6603;47.066;15.396;2023-04-09T05:59:12;4.20;99.90
13074;DHT22;6603;47.066;15.396;2023-04-09T06:01:38;4.20;99.90
13074;DHT22;6603;47.066;15.396;2023-04-09T06:04:04;4.40;99.90
13074;DHT22;6603;47.066;15.396;2023-04-09T06:06:30;4.40;99.90
13074;DHT22;6603;47.066;15.396;2023-04-09T06:08:56;4.40;99.90
13074;DHT22;6603;47.066;15.396;2023-04-09T06:11:22;4.60;99.90
13074;DHT22;6603;47.066;15.396;2023-04-09T06:13:48;4.70;99.90
13074;DHT22;6603;47.066;15.396;2023-04-09T06:16:14;4.70;99.90
13074;DHT22;6603;47.066;15.396;2023-04-09T06:18:40;4.60;99.90
13074;DHT22;6603;47.066;15.396;2023-04-09T06:21:07;4.50;99.90
13074;DHT22;6603;47.066;15.396;2023-04-09T06:23:35;4.50;99.90
13074;DHT22;6603;47.066;15.396;2023-04-09T06:26:01;4.50;99.90
13074;DHT22;6603;47.066;15.396;2023-04-09T06:28:27;4.50;99.90
13074;DHT22;6603;47.066;15.396;2023-04-09T06:30:53;4.50;99.90
13074;DHT22;6603;47.066;15.396;2023-04-09T06:33:20;4.50;99.90
13074;DHT22;6603;47.066;15.396;2023-04-09T06:35:46;4.50;99.90
13074;DHT22;6603;47.066;15.396;2023-04-09T06:38:13;4.30;99.90
13074;DHT22;6603;47.066;15.396;2023-04-09T06:40:39;4.30;99.90
13074;DHT22;6603;47.066;15.396;2023-04-09T06:43:05;4.40;99.90
13074;DHT22;6603;47.066;15.396;2023-04-09T06:45:31;4.20;99.90
13074;DHT22;6603;47.066;15.396;2023-04-09T06:47:58;4.20;99.90
13074;DHT22;6603;47.066;15.396;2023-04-09T06:50:24;4.20;99.90
13074;DHT22;6603;47.066;15.396;2023-04-09T06:52:51;4.20;99.90
13074;DHT22;6603;47.066;15.396;2023-04-09T06:55:16;4.20;99.90
13074;DHT22;6603;47.066;15.396;2023-04-09T06:57:42;4.20;99.90
13074;DHT22;6603;47.066;15.396;2023-04-09T07:00:09;4.30;99.90
13074;DHT22;6603;47.066;15.396;2023-04-09T07:02:35;4.40;99.90
13074;DHT22;6603;47.066;15.396;2023-04-09T07:05:02;4.60;99.90
13074;DHT22;6603;47.066;15.396;2023-04-09T07:07:28;4.50;99.90
13074;DHT22;6603;47.066;15.396;2023-04-09T07:09:54;4.50;99.90
13074;DHT22;6603;47.066;15.396;2023-04-09T07:12:30;4.50;99.90
13074;DHT22;6603;47.066;15.396;2023-04-09T07:15:01;4.40;99.90
13074;DHT22;6603;47.066;15.396;2023-04-09T07:17:29;4.50;99.90
13074;DHT22;6603;47.066;15.396;2023-04-09T07:19:55;4.70;99.90
13074;DHT22;6603;47.066;15.396;2023-04-09T07:22:21;4.80;99.90
13074;DHT22;6603;47.066;15.396;2023-04-09T07:24:47;4.80;99.90
13074;DHT22;6603;47.066;15.396;2023-04-09T07:27:19;4.70;99.90
13074;DHT22;6603;47.066;15.396;2023-04-09T07:29:45;4.60;99.90
13074;DHT22;6603;47.066;15.396;2023-04-09T07:32:11;4.80;99.90
13074;DHT22;6603;47.066;15.396;2023-04-09T07:34:37;5.10;99.90
13074;DHT22;6603;47.066;15.396;2023-04-09T07:37:03;5.10;99.90
13074;DHT22;6603;47.066;15.396;2023-04-09T07:39:29;5.30;99.90
13074;DHT22;6603;47.066;15.396;2023-04-09T07:41:55;5.20;99.90
13074;DHT22;6603;47.066;15.396;2023-04-09T07:44:22;5.20;99.90
13074;DHT22;6603;47.066;15.396;2023-04-09T07:46:47;5.20;99.90
13074;DHT22;6603;47.066;15.396;2023-04-09T07:49:13;5.20;99.90
13074;DHT22;6603;47.066;15.396;2023-04-09T07:51:39;5.50;99.90
13074;DHT22;6603;47.066;15.396;2023-04-09T07:54:05;5.70;99.90
13074;DHT22;6603;47.066;15.396;2023-04-09T07:56:30;5.70;99.90
13074;DHT22;6603;47.066;15.396;2023-04-09T07:58:56;6.00;99.90
13074;DHT22;6603;47.066;15.396;2023-04-09T08:01:22;6.10;85.80
13074;DHT22;6603;47.066;15.396;2023-04-09T08:03:49;6.10;99.90
13074;DHT22;6603;47.066;15.396;2023-04-09T08:06:15;6.20;70.90
13074;DHT22;6603;47.066;15.396;2023-04-09T08:08:42;6.30;99.90
13074;DHT22;6603;47.066;15.396;2023-04-09T08:11:07;6.30;99.90
13074;DHT22;6603;47.066;15.396;2023-04-09T08:13:33;6.50;99.90
13074;DHT22;6603;47.066;15.396;2023-04-09T08:16:00;6.40;42.80
13074;DHT22;6603;47.066;15.396;2023-04-09T08:18:26;6.50;99.90
13074;DHT22;6603;47.066;15.396;2023-04-09T08:20:53;6.50;30.00
13074;DHT22;6603;47.066;15.396;2023-04-09T08:23:18;6.60;83.80
13074;DHT22;6603;47.066;15.396;2023-04-09T08:25:44;6.50;35.50
13074;DHT22;6603;47.066;15.396;2023-04-09T08:28:10;6.40;5.30
13074;DHT22;6603;47.066;15.396;2023-04-09T08:30:36;6.30;7.20
13074;DHT22;6603;47.066;15.396;2023-04-09T08:33:01;6.50;92.10
13074;DHT22;6603;47.066;15.396;2023-04-09T08:35:29;6.50;39.30
13074;DHT22;6603;47.066;15.396;2023-04-09T08:37:55;6.50;94.90
13074;DHT22;6603;47.066;15.396;2023-04-09T08:40:21;6.50;67.40
13074;DHT22;6603;47.066;15.396;2023-04-09T08:42:54;6.50;40.30
13074;DHT22;6603;47.066;15.396;2023-04-09T08:45:23;6.30;11.70
13074;DHT22;6603;47.066;15.396;2023-04-09T08:47:50;6.10;36.60
13074;DHT22;6603;47.066;15.396;2023-04-09T08:50:16;6.50;72.10
13074;DHT22;6603;47.066;15.396;2023-04-09T08:52:45;6.60;99.90
13074;DHT22;6603;47.066;15.396;2023-04-09T08:55:12;6.60;99.90
13074;DHT22;6603;47.066;15.396;2023-04-09T08:57:39;6.50;50.70
13074;DHT22;6603;47.066;15.396;2023-04-09T09:00:05;6.70;99.90
13074;DHT22;6603;47.066;15.396;2023-04-09T09:02:32;6.80;84.50
13074;DHT22;6603;47.066;15.396;2023-04-09T09:04:58;7.10;99.90
13074;DHT22;6603;47.066;15.396;2023-04-09T09:07:28;7.30;99.90
13074;DHT22;6603;47.066;15.396;2023-04-09T09:09:56;7.10;82.00
13074;DHT22;6603;47.066;15.396;2023-04-09T09:12:37;7.60;90.10
13074;DHT22;6603;47.066;15.396;2023-04-09T09:15:04;7.40;15.10
13074;DHT22;6603;47.066;15.396;2023-04-09T09:17:31;7.60;55.70
13074;DHT22;6603;47.066;15.396;2023-04-09T09:19:57;7.60;58.00
13074;DHT22;6603;47.066;15.396;2023-04-09T09:22:23;7.70;53.50
13074;DHT22;6603;47.066;15.396;2023-04-09T09:24:51;7.60;1.00
13074;DHT22;6603;47.066;15.396;2023-04-09T09:27:34;7.70;1.00
13074;DHT22;6603;47.066;15.396;2023-04-09T09:30:08;7.50;37.50
13074;DHT22;6603;47.066;15.396;2023-04-09T09:32:36;7.20;16.40
13074;DHT22;6603;47.066;15.396;2023-04-09T09:35:05;6.90;64.40
13074;DHT22;6603;47.066;15.396;2023-04-09T09:37:33;6.80;49.00
13074;DHT22;6603;47.066;15.396;2023-04-09T09:39:59;6.70;93.80
13074;DHT22;6603;47.066;15.396;2023-04-09T09:42:25;6.50;99.90
13074;DHT22;6603;47.066;15.396;2023-04-09T09:44:53;6.40;99.90
13074;DHT22;6603;47.066;15.396;2023-04-09T09:47:21;6.30;99.90
13074;DHT22;6603;47.066;15.396;2023-04-09T09:49:48;6.30;99.90
13074;DHT22;6603;47.066;15.396;2023-04-09T09:52:15;6.20;99.90
13074;DHT22;6603;47.066;15.396;2023-04-09T09:54:43;6.40;99.90
13074;DHT22;6603;47.066;15.396;2023-04-09T09:57:12;6.30;99.90
13074;DHT22;6603;47.066;15.396;2023-04-09T10:00:02;6.50;99.90
13074;DHT22;6603;47.066;15.396;2023-04-09T10:02:36;6.70;97.20
13074;DHT22;6603;47.066;15.396;2023-04-09T10:05:07;7.10;81.10
13074;DHT22;6603;47.066;15.396;2023-04-09T10:07:34;7.00;1.00
13074;DHT22;6603;47.066;15.396;2023-04-09T10:10:01;7.00;1.00
13074;DHT22;6603;47.066;15.396;2023-04-09T10:12:27;7.50;78.10
13074;DHT22;6603;47.066;15.396;2023-04-09T10:14:54;7.60;28.30
13074;DHT22;6603;47.066;15.396;2023-04-09T10:17:21;7.70;94.90
13074;DHT22;6603;47.066;15.396;2023-04-09T10:19:58;7.90;1.00
13074;DHT22;6603;47.066;15.396;2023-04-09T10:22:27;7.50;1.00
13074;DHT22;6603;47.066;15.396;2023-04-09T10:24:53;8.00;24.80
13074;DHT22;6603;47.066;15.396;2023-04-09T10:27:20;7.60;1.00
13074;DHT22;6603;47.066;15.396;2023-04-09T10:29:48;7.90;1.00
13074;DHT22;6603;47.066;15.396;2023-04-09T10:32:20;8.30;1.00
13074;DHT22;6603;47.066;15.396;2023-04-09T10:34:48;7.70;1.00
13074;DHT22;6603;47.066;15.396;2023-04-09T10:37:23;8.10;1.00
13074;DHT22;6603;47.066;15.396;2023-04-09T10:39:50;8.20;1.00
13074;DHT22;6603;47.066;15.396;2023-04-09T10:42:23;8.40;1.00
13074;DHT22;6603;47.066;15.396;2023-04-09T10:47:39;8.70;1.00
13074;DHT22;6603;47.066;15.396;2023-04-09T10:50:19;9.00;1.00
13074;DHT22;6603;47.066;15.396;2023-04-09T10:52:46;9.40;1.00
13074;DHT22;6603;47.066;15.396;2023-04-09T10:58:01;9.50;1.00
13074;DHT22;6603;47.066;15.396;2023-04-09T11:00:27;9.10;99.90
13074;DHT22;6603;47.066;15.396;2023-04-09T11:05:33;9.70;1.00
13074;DHT22;6603;47.066;15.396;2023-04-09T11:08:10;9.90;1.00
13074;DHT22;6603;47.066;15.396;2023-04-09T11:10:45;10.30;56.10
13074;DHT22;6603;47.066;15.396;2023-04-09T11:13:15;10.60;1.00
13074;DHT22;6603;47.066;15.396;2023-04-09T11:15:42;10.70;99.90
13074;DHT22;6603;47.066;15.396;2023-04-09T11:18:08;10.40;99.90
13074;DHT22;6603;47.066;15.396;2023-04-09T11:20:34;9.90;1.00
13074;DHT22;6603;47.066;15.396;2023-04-09T11:23:01;9.70;1.00
13074;DHT22;6603;47.066;15.396;2023-04-09T11:25:32;9.50;1.00
13074;DHT22;6603;47.066;15.396;2023-04-09T11:27:59;8.90;99.90
13074;DHT22;6603;47.066;15.396;2023-04-09T11:30:25;8.90;57.60
13074;DHT22;6603;47.066;15.396;2023-04-09T11:32:50;8.50;1.00
13074;DHT22;6603;47.066;15.396;2023-04-09T11:35:18;8.60;1.00
13074;DHT22;6603;47.066;15.396;2023-04-09T11:37:45;8.50;99.90
13074;DHT22;6603;47.066;15.396;2023-04-09T11:40:23;8.50;1.00
13074;DHT22;6603;47.066;15.396;2023-04-09T11:42:52;8.70;1.00
13074;DHT22;6603;47.066;15.396;2023-04-09T11:45:25;8.80;99.90
13074;DHT22;6603;47.066;15.396;2023-04-09T11:47:52;9.50;1.00
13074;DHT22;6603;47.066;15.396;2023-04-09T11:50:18;10.10;1.00
13074;DHT22;6603;47.066;15.396;2023-04-09T11:52:46;10.20;1.00
13074;DHT22;6603;47.066;15.396;2023-04-09T11:55:11;10.20;99.90
13074;DHT22;6603;47.066;15.396;2023-04-09T11:57:47;10.50;1.00
13074;DHT22;6603;47.066;15.396;2023-04-09T12:00:14;10.60;1.00
13074;DHT22;6603;47.066;15.396;2023-04-09T12:02:45;10.40;1.00
13074;DHT22;6603;47.066;15.396;2023-04-09T12:05:22;11.30;1.00
13074;DHT22;6603;47.066;15.396;2023-04-09T12:07:49;11.90;1.00
13074;DHT22;6603;47.066;15.396;2023-04-09T12:10:15;12.20;1.00
13074;DHT22;6603;47.066;15.396;2023-04-09T12:12:43;11.60;1.00
13074;DHT22;6603;47.066;15.396;2023-04-09T12:15:20;10.40;1.00
13074;DHT22;6603;47.066;15.396;2023-04-09T12:17:52;10.70;99.90
13074;DHT22;6603;47.066;15.396;2023-04-09T12:20:33;11.00;99.90
13074;DHT22;6603;47.066;15.396;2023-04-09T12:23:01;10.70;1.00
13074;DHT22;6603;47.066;15.396;2023-04-09T12:25:32;11.20;99.90
13074;DHT22;6603;47.066;15.396;2023-04-09T12:28:00;11.40;1.00
13074;DHT22;6603;47.066;15.396;2023-04-09T12:30:26;11.50;1.00
13074;DHT22;6603;47.066;15.396;2023-04-09T12:32:53;11.10;1.00
13074;DHT22;6603;47.066;15.396;2023-04-09T12:35:20;10.90;1.00
13074;DHT22;6603;47.066;15.396;2023-04-09T12:37:46;11.20;1.00
13074;DHT22;6603;47.066;15.396;2023-04-09T12:40:12;11.40;1.00
13074;DHT22;6603;47.066;15.396;2023-04-09T12:42:41;11.60;1.00
13074;DHT22;6603;47.066;15.396;2023-04-09T12:45:09;11.50;99.90
13074;DHT22;6603;47.066;15.396;2023-04-09T12:47:35;11.00;1.00
13074;DHT22;6603;47.066;15.396;2023-04-09T12:50:03;10.60;1.00
13074;DHT22;6603;47.066;15.396;2023-04-09T12:52:29;10.10;99.90
13074;DHT22;6603;47.066;15.396;2023-04-09T12:54:55;9.60;1.00
13074;DHT22;6603;47.066;15.396;2023-04-09T12:57:21;9.40;1.00
13074;DHT22;6603;47.066;15.396;2023-04-09T12:59:46;9.00;1.00
13074;DHT22;6603;47.066;15.396;2023-04-09T13:02:12;8.70;99.90
13074;DHT22;6603;47.066;15.396;2023-04-09T13:04:38;8.60;1.00
13074;DHT22;6603;47.066;15.396;2023-04-09T13:07:03;8.30;1.00
13074;DHT22;6603;47.066;15.396;2023-04-09T13:09:29;7.70;1.00
13074;DHT22;6603;47.066;15.396;2023-04-09T13:11:55;6.60;60.30
13074;DHT22;6603;47.066;15.396;2023-04-09T13:14:20;5.80;99.90
13074;DHT22;6603;47.066;15.396;2023-04-09T13:16:46;5.50;99.90
13074;DHT22;6603;47.066;15.396;2023-04-09T13:19:12;5.20;99.90
13074;DHT22;6603;47.066;15.396;2023-04-09T13:21:38;5.50;99.90
13074;DHT22;6603;47.066;15.396;2023-04-09T13:24:04;5.70;99.90
13074;DHT22;6603;47.066;15.396;2023-04-09T13:26:31;5.70;99.90
13074;DHT22;6603;47.066;15.396;2023-04-09T13:28:57;5.80;99.90
13074;DHT22;6603;47.066;15.396;2023-04-09T13:31:23;6.10;99.90
13074;DHT22;6603;47.066;15.396;2023-04-09T13:33:50;6.20;99.90
13074;DHT22;6603;47.066;15.396;2023-04-09T13:36:15;6.40;99.90
13074;DHT22;6603;47.066;15.396;2023-04-09T13:38:41;6.50;99.90
13074;DHT22;6603;47.066;15.396;2023-04-09T13:41:07;6.50;99.90
13074;DHT22;6603;47.066;15.396;2023-04-09T13:43:32;6.70;99.90
13074;DHT22;6603;47.066;15.396;2023-04-09T13:45:58;6.60;99.90
13074;DHT22;6603;47.066;15.396;2023-04-09T13:48:24;6.60;99.90
13074;DHT22;6603;47.066;15.396;2023-04-09T13:50:50;6.80;99.90
13074;DHT22;6603;47.066;15.396;2023-04-09T13:53:16;6.80;94.40
13074;DHT22;6603;47.066;15.396;2023-04-09T13:55:44;6.80;99.90
13074;DHT22;6603;47.066;15.396;2023-04-09T13:58:11;6.80;99.90
13074;DHT22;6603;47.066;15.396;2023-04-09T14:00:37;7.00;99.90
13074;DHT22;6603;47.066;15.396;2023-04-09T14:03:03;6.90;99.90
13074;DHT22;6603;47.066;15.396;2023-04-09T14:05:29;7.00;99.90
13074;DHT22;6603;47.066;15.396;2023-04-09T14:07:57;7.10;99.90
13074;DHT22;6603;47.066;15.396;2023-04-09T14:10:22;7.40;99.90
13074;DHT22;6603;47.066;15.396;2023-04-09T14:12:48;7.60;95.00
13074;DHT22;6603;47.066;15.396;2023-04-09T14:15:15;7.70;62.70
13074;DHT22;6603;47.066;15.396;2023-04-09T14:17:42;7.90;1.00
13074;DHT22;6603;47.066;15.396;2023-04-09T14:20:08;8.00;1.00
13074;DHT22;6603;47.066;15.396;2023-04-09T14:22:34;7.70;1.00
13074;DHT22;6603;47.066;15.396;2023-04-09T14:25:00;7.80;1.00
13074;DHT22;6603;47.066;15.396;2023-04-09T14:27:25;7.70;1.00
13074;DHT22;6603;47.066;15.396;2023-04-09T14:29:51;7.70;51.30
13074;DHT22;6603;47.066;15.396;2023-04-09T14:32:18;7.50;17.30
13074;DHT22;6603;47.066;15.396;2023-04-09T14:34:44;7.20;56.60
13074;DHT22;6603;47.066;15.396;2023-04-09T14:37:09;6.80;1.00
13074;DHT22;6603;47.066;15.396;2023-04-09T14:39:35;6.80;1.00
13074;DHT22;6603;47.066;15.396;2023-04-09T14:42:01;6.70;81.40
13074;DHT22;6603;47.066;15.396;2023-04-09T14:44:27;6.80;99.90
13074;DHT22;6603;47.066;15.396;2023-04-09T14:46:52;6.90;99.90
13074;DHT22;6603;47.066;15.396;2023-04-09T14:49:22;7.00;47.40
13074;DHT22;6603;47.066;15.396;2023-04-09T14:51:48;7.20;5.00
13074;DHT22;6603;47.066;15.396;2023-04-09T14:54:14;7.30;1.00
13074;DHT22;6603;47.066;15.396;2023-04-09T14:56:40;7.30;1.00
13074;DHT22;6603;47.066;15.396;2023-04-09T14:59:06;7.60;1.00
13074;DHT22;6603;47.066;15.396;2023-04-09T15:01:31;7.60;1.00
13074;DHT22;6603;47.066;15.396;2023-04-09T15:03:57;7.60;1.00
13074;DHT22;6603;47.066;15.396;2023-04-09T15:06:23;7.70;1.00
13074;DHT22;6603;47.066;15.396;2023-04-09T15:08:49;7.80;31.50
13074;DHT22;6603;47.066;15.396;2023-04-09T15:11:15;7.50;1.00
13074;DHT22;6603;47.066;15.396;2023-04-09T15:13:41;7.30;1.00
13074;DHT22;6603;47.066;15.396;2023-04-09T15:16:07;7.50;81.80
13074;DHT22;6603;47.066;15.396;2023-04-09T15:18:33;7.80;46.10
13074;DHT22;6603;47.066;15.396;2023-04-09T15:21:00;7.70;59.50
13074;DHT22;6603;47.066;15.396;2023-04-09T15:23:26;7.80;87.80
13074;DHT22;6603;47.066;15.396;2023-04-09T15:25:52;7.90;52.50
13074;DHT22;6603;47.066;15.396;2023-04-09T15:28:17;8.10;64.00
13074;DHT22;6603;47.066;15.396;2023-04-09T15:30:43;8.10;40.10
13074;DHT22;6603;47.066;15.396;2023-04-09T15:33:09;8.00;71.00
13074;DHT22;6603;47.066;15.396;2023-04-09T15:35:35;8.10;39.30
13074;DHT22;6603;47.066;15.396;2023-04-09T15:38:00;8.10;64.20
13074;DHT22;6603;47.066;15.396;2023-04-09T15:40:26;8.00;30.00
13074;DHT22;6603;47.066;15.396;2023-04-09T15:42:54;8.10;30.20
13074;DHT22;6603;47.066;15.396;2023-04-09T15:45:19;8.10;1.00
13074;DHT22;6603;47.066;15.396;2023-04-09T15:47:45;8.10;51.30
13074;DHT22;6603;47.066;15.396;2023-04-09T15:50:12;8.10;71.60
13074;DHT22;6603;47.066;15.396;2023-04-09T15:52:38;7.90;47.30
13074;DHT22;6603;47.066;15.396;2023-04-09T15:55:04;7.70;53.30
13074;DHT22;6603;47.066;15.396;2023-04-09T15:57:30;7.60;70.40
13074;DHT22;6603;47.066;15.396;2023-04-09T15:59:56;7.40;96.10
13074;DHT22;6603;47.066;15.396;2023-04-09T16:02:22;7.20;99.20
13074;DHT22;6603;47.066;15.396;2023-04-09T16:04:48;7.00;99.90
13074;DHT22;6603;47.066;15.396;2023-04-09T16:07:14;6.90;99.90
13074;DHT22;6603;47.066;15.396;2023-04-09T16:09:41;7.00;99.90
13074;DHT22;6603;47.066;15.396;2023-04-09T16:12:07;7.00;99.90
13074;DHT22;6603;47.066;15.396;2023-04-09T16:14:32;7.00;99.90